Markville, Minnesota
Current Conditions -  °F | °C
As of 11:04 AM on Friday 31 Oct 2014 (Local Time) from K04W Reporting Station
Clear Clear  
Wind Chill: 24°   Ceiling: Unl
Heat Index: 32°   Visibility: 10mi
Dew Point: 19°   Wind: 9mph
Humidity: 60%   Direction: 40°NE
Pressure: 30.55"   Gusts: NA
Location:  46.138°N, 92.5611°W
Report Text: K04W 311604Z AUTO 04008KT 10SM CLR 00/M07 A3055 RMK AO2
Loading
Personal Weather Stations






























Interactive Weather Map
Tropical Storm Tracking
New forecast layout! Learn more

10-Day Weather Forecast

Advertisements
Track Severe Weather on mobile